createdAt,value
2023-01-25T00:00:48.869Z,92923.34
2023-01-25T00:03:21.104Z,92918.00
2023-01-25T00:05:59.741Z,92919.59
2023-01-25T00:08:32.087Z,92923.91
2023-01-25T00:11:04.389Z,92927.66
2023-01-25T00:13:36.368Z,92924.28
2023-01-25T00:16:08.514Z,92924.47
2023-01-25T00:18:40.709Z,92926.47
2023-01-25T00:21:14.034Z,92917.97
2023-01-25T00:23:46.149Z,92913.41
2023-01-25T00:26:18.864Z,92918.72
2023-01-25T00:28:51.408Z,92920.16
2023-01-25T00:31:26.748Z,92924.84
2023-01-25T00:34:01.800Z,92920.16
2023-01-25T00:36:40.224Z,92920.75
2023-01-25T00:39:12.916Z,92921.91
2023-01-25T00:41:45.008Z,92917.97
2023-01-25T00:44:17.096Z,92926.66
2023-01-25T00:46:49.342Z,92919.16
2023-01-25T00:49:22.440Z,92919.19
2023-01-25T00:51:55.450Z,92918.03
2023-01-25T00:54:27.534Z,92923.34
2023-01-25T00:56:59.777Z,92919.22
2023-01-25T00:59:32.635Z,92926.34
2023-01-25T01:02:04.931Z,92925.16
2023-01-25T01:04:37.224Z,92929.28
2023-01-25T01:07:11.679Z,92924.16
2023-01-25T01:09:44.173Z,92927.09
2023-01-25T01:12:16.275Z,92928.66
2023-01-25T01:14:48.274Z,92922.72
2023-01-25T01:17:20.383Z,92931.34
2023-01-25T01:19:52.867Z,92926.97
2023-01-25T01:22:25.686Z,92916.91
2023-01-25T01:24:57.781Z,92910.03
2023-01-25T01:27:29.843Z,92908.06
2023-01-25T01:30:02.832Z,92904.94
2023-01-25T01:32:35.275Z,92897.06
2023-01-25T01:35:08.442Z,92905.19
2023-01-25T01:37:42.438Z,92899.84
2023-01-25T01:40:14.835Z,92905.72
2023-01-25T01:42:56.426Z,92901.56
2023-01-25T01:45:59.427Z,92898.63
2023-01-25T01:48:41.108Z,92900.63
2023-01-25T01:51:19.863Z,92903.38
2023-01-25T01:53:55.288Z,92906.34
2023-01-25T01:56:30.854Z,92909.22
2023-01-25T01:59:07.033Z,92901.53
2023-01-25T02:01:39.380Z,92905.66
2023-01-25T02:04:12.957Z,92909.41
2023-01-25T02:06:48.054Z,92914.69
2023-01-25T02:09:23.521Z,92908.13
2023-01-25T02:11:56.537Z,92904.03
2023-01-25T02:14:29.077Z,92900.88
2023-01-25T02:17:03.496Z,92891.59
2023-01-25T02:19:43.416Z,92892.00
2023-01-25T02:22:16.031Z,92894.38
2023-01-25T02:24:51.541Z,92896.56
2023-01-25T02:27:24.248Z,92891.75
2023-01-25T02:29:56.773Z,92896.84
2023-01-25T02:32:28.751Z,92888.44
2023-01-25T02:35:00.933Z,92885.13
2023-01-25T02:37:33.430Z,92886.13
2023-01-25T02:40:06.159Z,92874.72
2023-01-25T02:42:41.475Z,92882.44
2023-01-25T02:45:15.970Z,92885.00
2023-01-25T02:47:48.227Z,92884.63
2023-01-25T02:50:20.502Z,92880.13
2023-01-25T02:52:52.488Z,92889.13
2023-01-25T02:55:24.566Z,92887.19
2023-01-25T02:57:57.491Z,92893.69
2023-01-25T03:00:29.705Z,92892.69
2023-01-25T03:03:01.831Z,92891.44
2023-01-25T03:05:33.995Z,92894.75
2023-01-25T03:08:06.220Z,92892.38
2023-01-25T03:10:38.381Z,92889.63
2023-01-25T03:13:11.496Z,92891.41
2023-01-25T03:15:43.580Z,92891.00
2023-01-25T03:18:15.763Z,92890.44
2023-01-25T03:20:48.476Z,92890.81
2023-01-25T03:23:21.207Z,92886.13
2023-01-25T03:25:53.338Z,92889.66
2023-01-25T03:28:26.131Z,92891.63
2023-01-25T03:30:59.088Z,92898.34
2023-01-25T03:33:31.220Z,92897.59
2023-01-25T03:36:03.764Z,92896.25
2023-01-25T03:38:36.246Z,92893.72
2023-01-25T03:41:08.616Z,92891.16
2023-01-25T03:43:41.430Z,92878.50
2023-01-25T03:46:13.803Z,92890.50
2023-01-25T03:48:46.361Z,92889.13
2023-01-25T03:51:18.505Z,92883.84
2023-01-25T03:53:50.754Z,92875.19
2023-01-25T03:56:23.462Z,92876.00
2023-01-25T03:59:10.662Z,92875.16
2023-01-25T04:01:42.804Z,92879.88
2023-01-25T04:04:14.880Z,92871.59
2023-01-25T04:06:49.467Z,92862.72
2023-01-25T04:09:21.838Z,92868.97
2023-01-25T04:11:57.018Z,92856.34
2023-01-25T04:14:43.586Z,92865.00
2023-01-25T04:17:19.651Z,92868.94
2023-01-25T04:19:58.212Z,92867.00
2023-01-25T04:22:35.196Z,92863.84
2023-01-25T04:25:09.390Z,92861.88
2023-01-25T04:27:46.400Z,92865.75
2023-01-25T04:30:21.647Z,92874.06
2023-01-25T04:32:54.824Z,92871.63
2023-01-25T04:35:31.436Z,92868.25
2023-01-25T04:38:05.444Z,92873.44
2023-01-25T04:40:42.492Z,92877.56
2023-01-25T04:43:15.077Z,92883.69
2023-01-25T04:45:49.349Z,92874.63
2023-01-25T04:48:29.632Z,92876.75
2023-01-25T04:51:05.768Z,92879.09
2023-01-25T04:53:39.308Z,92878.34
2023-01-25T04:56:12.343Z,92882.09
2023-01-25T04:58:56.018Z,92880.28
2023-01-25T05:01:29.014Z,92885.06
2023-01-25T05:04:01.905Z,92880.56
2023-01-25T05:06:43.932Z,92885.88
2023-01-25T05:09:17.012Z,92882.94
2023-01-25T05:11:50.151Z,92893.53
2023-01-25T05:14:45.853Z,92882.16
2023-01-25T05:17:18.590Z,92890.84
2023-01-25T05:19:50.752Z,92888.44
2023-01-25T05:22:26.257Z,92887.25
2023-01-25T05:24:58.877Z,92887.06
2023-01-25T05:27:30.668Z,92887.63
2023-01-25T05:30:02.771Z,92885.31
2023-01-25T05:33:13.675Z,92883.13
2023-01-25T05:35:45.920Z,92883.59
2023-01-25T05:38:18.100Z,92882.22
2023-01-25T05:40:50.468Z,92885.75
2023-01-25T05:43:23.673Z,92877.13
2023-01-25T05:45:55.808Z,92881.31
2023-01-25T05:48:29.406Z,92881.50
2023-01-25T05:51:03.043Z,92889.78
2023-01-25T05:53:37.284Z,92885.25
2023-01-25T05:56:09.965Z,92897.03
2023-01-25T05:58:42.291Z,92895.66
2023-01-25T06:01:14.367Z,92889.56
2023-01-25T06:03:55.110Z,92890.34
2023-01-25T06:06:28.387Z,92893.06
2023-01-25T06:09:00.992Z,92899.59
2023-01-25T06:11:33.079Z,92891.94
2023-01-25T06:14:05.458Z,92899.59
2023-01-25T06:16:37.547Z,92895.06
2023-01-25T06:19:35.129Z,92898.56
2023-01-25T06:22:26.011Z,92903.84
2023-01-25T06:24:58.134Z,92894.63
2023-01-25T06:27:30.177Z,92887.19
2023-01-25T06:30:02.274Z,92891.50
2023-01-25T06:32:34.314Z,92884.25
2023-01-25T06:35:07.712Z,92883.47
2023-01-25T06:37:39.976Z,92881.13
2023-01-25T06:40:12.244Z,92874.25
2023-01-25T06:42:44.961Z,92880.72
2023-01-25T06:45:17.089Z,92878.75
2023-01-25T06:47:49.304Z,92887.22
2023-01-25T06:50:22.275Z,92887.22
2023-01-25T06:52:54.593Z,92887.22
2023-01-25T06:55:26.732Z,92879.53
2023-01-25T06:58:00.023Z,92882.91
2023-01-25T07:00:32.549Z,92883.28
2023-01-25T07:03:04.592Z,92879.34
2023-01-25T07:05:37.383Z,92883.06
2023-01-25T07:08:09.518Z,92874.19
2023-01-25T07:10:41.576Z,92875.00
2023-01-25T07:13:13.541Z,92883.06
2023-01-25T07:15:51.475Z,92885.63
2023-01-25T07:18:23.805Z,92895.47
2023-01-25T07:21:01.963Z,92884.44
2023-01-25T07:23:34.306Z,92889.78
2023-01-25T07:26:06.511Z,92881.06
2023-01-25T07:28:38.639Z,92890.34
2023-01-25T07:31:10.871Z,92893.09
2023-01-25T07:33:43.085Z,92898.84
2023-01-25T07:36:16.005Z,92894.31
2023-01-25T07:38:48.338Z,92907.69
2023-01-25T07:41:20.495Z,92905.34
2023-01-25T07:43:52.845Z,92917.53
2023-01-25T07:46:54.454Z,92908.88
2023-01-25T07:49:26.498Z,92906.69
2023-01-25T07:51:59.237Z,92905.72
2023-01-25T07:54:31.328Z,92914.16
2023-01-25T07:57:03.461Z,92914.72
2023-01-25T07:59:35.571Z,92906.66
2023-01-25T08:02:08.137Z,92907.47
2023-01-25T08:04:41.959Z,92905.91
2023-01-25T08:07:14.723Z,92901.75
2023-01-25T08:09:47.113Z,92900.75
2023-01-25T08:12:19.221Z,92901.53
2023-01-25T08:14:51.276Z,92905.47
2023-01-25T08:17:23.556Z,92903.31
2023-01-25T08:19:55.830Z,92898.03
2023-01-25T08:22:28.520Z,92898.81
2023-01-25T08:25:00.963Z,92900.97
2023-01-25T08:27:33.020Z,92903.34
2023-01-25T08:30:05.609Z,92903.13
2023-01-25T08:32:38.244Z,92893.47
2023-01-25T08:35:10.732Z,92894.44
2023-01-25T08:37:43.615Z,92900.16
2023-01-25T08:40:16.199Z,92897.63
2023-01-25T08:42:48.703Z,92899.38
2023-01-25T08:45:21.008Z,92890.91
2023-01-25T08:47:53.575Z,92890.69
2023-01-25T08:50:25.666Z,92891.13
2023-01-25T08:52:58.405Z,92891.50
2023-01-25T08:55:30.720Z,92882.44
2023-01-25T08:58:02.753Z,92888.13
2023-01-25T09:00:35.057Z,92890.50
2023-01-25T09:03:07.205Z,92888.31
2023-01-25T09:05:39.479Z,92888.69
2023-01-25T09:08:12.165Z,92883.19
2023-01-25T09:10:44.260Z,92880.84
2023-01-25T09:13:16.273Z,92884.75
2023-01-25T09:15:48.425Z,92886.16
2023-01-25T09:18:20.492Z,92883.75
2023-01-25T09:20:52.578Z,92877.25
2023-01-25T09:23:26.179Z,92873.34
2023-01-25T09:25:58.749Z,92869.63
2023-01-25T09:28:31.575Z,92874.94
2023-01-25T09:31:20.444Z,92875.91
2023-01-25T09:34:17.036Z,92862.91
2023-01-25T09:36:49.135Z,92856.03
2023-01-25T09:39:21.828Z,92862.91
2023-01-25T09:42:15.125Z,92855.66
2023-01-25T09:44:59.726Z,92846.78
2023-01-25T09:47:38.105Z,92824.38
2023-01-25T09:50:31.021Z,92835.50
2023-01-25T09:53:21.190Z,92839.97
2023-01-25T09:55:58.035Z,92829.97
2023-01-25T09:58:34.581Z,92829.91
2023-01-25T10:01:37.712Z,92828.78
2023-01-25T10:04:14.617Z,92830.75
2023-01-25T10:06:59.626Z,92817.75
2023-01-25T10:09:37.188Z,92814.38
2023-01-25T10:12:15.105Z,92808.88
2023-01-25T10:14:47.339Z,92812.41
2023-01-25T10:17:23.567Z,92802.75
2023-01-25T10:20:04.087Z,92798.59
2023-01-25T10:22:39.972Z,92802.47
2023-01-25T10:25:26.923Z,92805.66
2023-01-25T10:28:08.686Z,92791.03
2023-01-25T10:30:45.682Z,92793.03
2023-01-25T10:33:18.496Z,92790.00
2023-01-25T10:35:50.557Z,92791.00
2023-01-25T10:38:25.732Z,92791.34
2023-01-25T10:41:01.437Z,92779.94
2023-01-25T10:43:34.240Z,92780.81
2023-01-25T10:46:15.722Z,92784.34
2023-01-25T10:48:48.048Z,92779.34
2023-01-25T10:51:30.293Z,92768.00
2023-01-25T10:54:03.533Z,92767.53
2023-01-25T10:56:38.800Z,92767.13
2023-01-25T10:59:22.786Z,92763.78
2023-01-25T11:01:54.855Z,92755.69
2023-01-25T11:04:31.510Z,92761.28
2023-01-25T11:07:05.237Z,92751.13
2023-01-25T11:09:38.391Z,92760.19
2023-01-25T11:12:16.923Z,92758.81
2023-01-25T11:14:49.948Z,92755.72
2023-01-25T11:17:26.625Z,92750.78
2023-01-25T11:20:15.943Z,92743.03
2023-01-25T11:22:52.063Z,92740.53
2023-01-25T11:25:25.353Z,92737.84
2023-01-25T11:28:10.751Z,92725.09
2023-01-25T11:30:43.793Z,92725.75
2023-01-25T11:33:16.739Z,92722.09
2023-01-25T11:35:58.749Z,92715.91
2023-01-25T11:38:30.849Z,92710.13
2023-01-25T11:41:09.856Z,92710.53
2023-01-25T11:43:51.888Z,92705.94
2023-01-25T11:46:34.790Z,92698.88
2023-01-25T11:49:28.205Z,92698.31
2023-01-25T11:52:05.853Z,92688.84
2023-01-25T11:54:50.889Z,92682.66
2023-01-25T11:57:34.207Z,92677.59
2023-01-25T12:00:17.896Z,92684.94
2023-01-25T12:03:06.433Z,92681.22
2023-01-25T12:05:43.376Z,92673.19
2023-01-25T12:08:22.154Z,92673.69
2023-01-25T12:10:58.460Z,92666.41
2023-01-25T12:13:38.667Z,92664.13
2023-01-25T12:16:26.787Z,92663.84
2023-01-25T12:19:10.782Z,92666.13
2023-01-25T12:21:50.079Z,92662.00
2023-01-25T12:24:32.655Z,92664.41
2023-01-25T12:27:11.928Z,92651.25
2023-01-25T12:29:46.704Z,92656.72
2023-01-25T12:32:23.454Z,92648.69
2023-01-25T12:35:03.639Z,92649.75
2023-01-25T12:37:39.564Z,92647.75
2023-01-25T12:40:14.131Z,92645.75
2023-01-25T12:42:50.971Z,92640.19
2023-01-25T12:45:25.162Z,92645.91
2023-01-25T12:48:00.360Z,92642.91
2023-01-25T12:50:38.498Z,92635.13
2023-01-25T12:53:17.020Z,92631.13
2023-01-25T12:55:49.642Z,92634.47
2023-01-25T12:58:36.979Z,92629.91
2023-01-25T13:01:16.317Z,92629.84
2023-01-25T13:03:58.315Z,92623.00
2023-01-25T13:06:36.743Z,92614.66
2023-01-25T13:09:15.124Z,92605.88
2023-01-25T13:11:47.848Z,92601.53
2023-01-25T13:14:27.670Z,92607.78
2023-01-25T13:17:10.718Z,92598.63
2023-01-25T13:19:42.861Z,92594.06
2023-01-25T13:22:35.599Z,92599.50
2023-01-25T13:25:10.443Z,92598.78
2023-01-25T13:27:42.795Z,92615.53
2023-01-25T13:30:29.571Z,92602.75
2023-01-25T13:33:06.595Z,92601.44
2023-01-25T13:35:42.372Z,92608.78
2023-01-25T13:38:32.077Z,92608.09
2023-01-25T13:41:11.715Z,92618.44
2023-01-25T13:43:46.065Z,92617.00
2023-01-25T13:46:22.051Z,92620.84
2023-01-25T13:48:58.345Z,92625.63
2023-01-25T13:51:33.610Z,92621.28
2023-01-25T13:54:06.375Z,92624.63
2023-01-25T13:56:38.439Z,92622.59
2023-01-25T13:59:23.841Z,92620.09
2023-01-25T14:01:56.694Z,92614.66
2023-01-25T14:04:29.843Z,92615.09
2023-01-25T14:07:09.157Z,92618.78
2023-01-25T14:09:43.120Z,92617.06
2023-01-25T14:12:25.106Z,92620.13
2023-01-25T14:14:57.199Z,92616.84
2023-01-25T14:17:29.324Z,92621.06
2023-01-25T14:20:01.888Z,92615.94
2023-01-25T14:22:35.077Z,92606.88
2023-01-25T14:25:11.185Z,92598.50
2023-01-25T14:27:44.481Z,92591.94
2023-01-25T14:30:18.979Z,92600.72
2023-01-25T14:32:51.832Z,92592.47
2023-01-25T14:35:54.610Z,92592.91
2023-01-25T14:38:33.044Z,92593.25
2023-01-25T14:41:10.997Z,92591.94
2023-01-25T14:43:44.661Z,92592.03
2023-01-25T14:46:21.123Z,92587.56
2023-01-25T14:49:06.427Z,92590.69
2023-01-25T14:51:40.653Z,92593.75
2023-01-25T14:54:17.613Z,92592.72
2023-01-25T14:56:51.831Z,92595.06
2023-01-25T14:59:26.903Z,92596.13
2023-01-25T15:02:01.002Z,92610.34
2023-01-25T15:04:35.394Z,92619.53
2023-01-25T15:07:29.759Z,92620.03
2023-01-25T15:10:02.966Z,92622.81
2023-01-25T15:12:35.711Z,92626.16
2023-01-25T15:15:17.541Z,92626.88
2023-01-25T15:17:50.201Z,92619.94
2023-01-25T15:20:28.007Z,92627.63
2023-01-25T15:23:01.496Z,92621.38
2023-01-25T15:25:33.624Z,92624.94
2023-01-25T15:28:06.603Z,92630.78
2023-01-25T15:30:38.748Z,92626.72
2023-01-25T15:33:17.119Z,92619.38
2023-01-25T15:35:49.738Z,92615.13
2023-01-25T15:38:22.219Z,92621.91
2023-01-25T15:40:59.611Z,92617.13
2023-01-25T15:43:32.358Z,92622.34
2023-01-25T15:46:05.344Z,92611.97
2023-01-25T15:48:38.299Z,92605.91
2023-01-25T15:51:11.260Z,92603.09
2023-01-25T15:53:43.724Z,92605.94
2023-01-25T15:56:17.800Z,92609.28
2023-01-25T15:58:51.787Z,92604.22
2023-01-25T16:01:26.444Z,92604.09
2023-01-25T16:03:59.384Z,92598.97
2023-01-25T16:06:33.392Z,92600.84
2023-01-25T16:09:12.745Z,92606.63
2023-01-25T16:11:45.219Z,92603.09
2023-01-25T16:14:18.131Z,92607.78
2023-01-25T16:16:51.195Z,92608.25
2023-01-25T16:19:23.749Z,92609.59
2023-01-25T16:21:55.822Z,92611.28
2023-01-25T16:24:27.993Z,92609.31
2023-01-25T16:27:00.915Z,92609.97
2023-01-25T16:29:33.651Z,92604.00
2023-01-25T16:32:05.901Z,92608.31
2023-01-25T16:34:38.088Z,92606.69
2023-01-25T16:37:14.107Z,92598.00
2023-01-25T16:39:46.202Z,92602.13
2023-01-25T16:42:18.332Z,92600.63
2023-01-25T16:44:50.997Z,92600.56
2023-01-25T16:47:23.058Z,92598.63
2023-01-25T16:49:55.199Z,92596.81
2023-01-25T16:52:27.306Z,92597.31
2023-01-25T16:54:59.597Z,92600.22
2023-01-25T16:57:31.667Z,92598.56
2023-01-25T17:00:05.219Z,92593.81
2023-01-25T17:02:38.635Z,92595.00
2023-01-25T17:05:12.233Z,92599.19
2023-01-25T17:07:48.429Z,92599.72
2023-01-25T17:10:20.501Z,92602.16
2023-01-25T17:12:52.677Z,92597.84
2023-01-25T17:15:25.361Z,92606.09
2023-01-25T17:17:57.516Z,92609.66
2023-01-25T17:20:29.570Z,92610.91
2023-01-25T17:23:02.015Z,92602.50
2023-01-25T17:25:40.351Z,92601.84
2023-01-25T17:28:12.644Z,92595.00
2023-01-25T17:30:45.438Z,92596.03
2023-01-25T17:33:18.080Z,92599.31
2023-01-25T17:35:50.383Z,92599.50
2023-01-25T17:38:23.422Z,92595.00
2023-01-25T17:40:55.514Z,92593.00
2023-01-25T17:43:27.731Z,92586.53
2023-01-25T17:46:00.533Z,92576.88
2023-01-25T17:48:32.603Z,92567.66
2023-01-25T17:51:04.782Z,92565.94
2023-01-25T17:53:36.997Z,92560.53
2023-01-25T17:56:10.701Z,92559.63
2023-01-25T17:58:42.788Z,92564.53
2023-01-25T18:01:17.062Z,92556.47
2023-01-25T18:03:50.145Z,92557.69
2023-01-25T18:06:24.332Z,92559.31
2023-01-25T18:08:59.232Z,92562.25
2023-01-25T18:11:33.123Z,92559.31
2023-01-25T18:14:07.627Z,92562.81
2023-01-25T18:16:40.974Z,92564.19
2023-01-25T18:19:13.199Z,92575.25
2023-01-25T18:21:45.928Z,92565.81
2023-01-25T18:24:25.588Z,92565.00
2023-01-25T18:26:59.899Z,92559.06
2023-01-25T18:29:40.223Z,92561.00
2023-01-25T18:32:13.057Z,92563.56
2023-01-25T18:34:46.153Z,92559.03
2023-01-25T18:37:19.794Z,92553.75
2023-01-25T18:39:52.695Z,92564.69
2023-01-25T18:42:25.670Z,92566.63
2023-01-25T18:44:57.863Z,92564.59
2023-01-25T18:47:31.201Z,92570.16
2023-01-25T18:50:03.978Z,92559.59
2023-01-25T18:52:36.250Z,92581.00
2023-01-25T18:55:08.821Z,92569.38
2023-01-25T18:57:41.387Z,92557.44
2023-01-25T19:00:14.225Z,92558.59
2023-01-25T19:02:47.143Z,92559.84
2023-01-25T19:05:20.239Z,92559.84
2023-01-25T19:07:52.344Z,92550.47
2023-01-25T19:10:24.417Z,92547.66
2023-01-25T19:12:57.660Z,92540.38
2023-01-25T19:15:30.199Z,92542.16
2023-01-25T19:18:02.970Z,92543.31
2023-01-25T19:20:35.741Z,92535.84
2023-01-25T19:23:08.064Z,92527.38
2023-01-25T19:25:40.733Z,92522.44
2023-01-25T19:28:14.061Z,92529.38
2023-01-25T19:30:46.439Z,92526.41
2023-01-25T19:33:19.210Z,92520.16
2023-01-25T19:35:58.236Z,92526.22
2023-01-25T19:38:30.629Z,92524.88
2023-01-25T19:41:04.538Z,92527.66
2023-01-25T19:43:36.868Z,92515.47
2023-01-25T19:46:09.711Z,92530.00
2023-01-25T19:48:42.904Z,92527.00
2023-01-25T19:51:15.706Z,92542.06
2023-01-25T19:53:52.303Z,92532.03
2023-01-25T19:56:24.632Z,92535.03
2023-01-25T19:58:57.174Z,92519.31
2023-01-25T20:01:30.052Z,92522.06
2023-01-25T20:04:05.847Z,92513.75
2023-01-25T20:06:38.164Z,92516.72
2023-01-25T20:09:11.590Z,92504.63
2023-01-25T20:11:44.372Z,92513.28
2023-01-25T20:14:16.468Z,92505.97
2023-01-25T20:16:52.095Z,92499.94
2023-01-25T20:19:24.776Z,92501.81
2023-01-25T20:21:59.434Z,92501.34
2023-01-25T20:24:32.637Z,92503.53
2023-01-25T20:27:06.705Z,92500.91
2023-01-25T20:29:39.458Z,92502.56
2023-01-25T20:32:26.633Z,92506.16
2023-01-25T20:35:06.015Z,92494.16
2023-01-25T20:37:38.309Z,92501.66
2023-01-25T20:40:11.883Z,92495.56
2023-01-25T20:42:43.937Z,92486.03
2023-01-25T20:45:16.585Z,92479.03
2023-01-25T20:47:48.660Z,92476.97
2023-01-25T20:50:21.558Z,92468.44
2023-01-25T20:52:53.607Z,92473.78
2023-01-25T20:55:25.985Z,92472.00
2023-01-25T20:57:58.085Z,92469.31
2023-01-25T21:00:30.406Z,92469.38
2023-01-25T21:03:02.581Z,92459.84
2023-01-25T21:05:35.276Z,92460.78
2023-01-25T21:08:07.476Z,92460.41
2023-01-25T21:10:39.536Z,92449.56
2023-01-25T21:13:11.577Z,92457.22
2023-01-25T21:15:43.603Z,92442.84
2023-01-25T21:18:16.001Z,92439.28
2023-01-25T21:20:48.730Z,92435.31
2023-01-25T21:23:20.840Z,92426.22
2023-01-25T21:25:52.888Z,92433.13
2023-01-25T21:28:24.951Z,92442.56
2023-01-25T21:30:57.225Z,92446.22
2023-01-25T21:33:29.509Z,92441.53
2023-01-25T21:36:07.667Z,92442.56
2023-01-25T21:38:40.515Z,92440.66
2023-01-25T21:41:13.540Z,92435.72
2023-01-25T21:44:04.077Z,92431.63
2023-01-25T21:46:36.420Z,92428.06
2023-01-25T21:49:35.925Z,92422.03
2023-01-25T21:52:08.758Z,92413.75
2023-01-25T21:54:40.849Z,92419.34
2023-01-25T21:57:12.856Z,92418.44
2023-01-25T21:59:45.118Z,92405.00
2023-01-25T22:02:17.512Z,92405.94
2023-01-25T22:04:49.622Z,92407.34
2023-01-25T22:07:23.639Z,92410.31
2023-01-25T22:09:55.809Z,92405.22
2023-01-25T22:12:27.893Z,92409.59
2023-01-25T22:15:00.916Z,92387.09
2023-01-25T22:17:33.173Z,92390.25
2023-01-25T22:20:07.312Z,92375.19
2023-01-25T22:22:39.957Z,92383.38
2023-01-25T22:25:11.994Z,92383.69
2023-01-25T22:27:46.420Z,92379.78
2023-01-25T22:30:18.436Z,92381.03
2023-01-25T22:32:50.634Z,92363.47
2023-01-25T22:35:22.656Z,92347.06
2023-01-25T22:37:55.388Z,92345.00
2023-01-25T22:40:27.569Z,92343.50
2023-01-25T22:42:59.673Z,92327.34
2023-01-25T22:45:31.790Z,92325.03
2023-01-25T22:48:04.051Z,92323.16
2023-01-25T22:50:36.104Z,92322.06
2023-01-25T22:53:08.848Z,92320.72
2023-01-25T22:55:41.669Z,92316.59
2023-01-25T22:58:13.719Z,92311.84
2023-01-25T23:00:45.691Z,92312.06
2023-01-25T23:03:18.006Z,92308.53
2023-01-25T23:05:57.564Z,92303.78
2023-01-25T23:08:33.452Z,92303.72
2023-01-25T23:11:06.411Z,92296.84
2023-01-25T23:13:39.300Z,92294.56
2023-01-25T23:16:11.406Z,92293.91
2023-01-25T23:18:52.104Z,92291.94
2023-01-25T23:21:26.608Z,92297.25
2023-01-25T23:24:00.320Z,92290.59
2023-01-25T23:26:37.709Z,92283.09
2023-01-25T23:29:11.101Z,92290.16
2023-01-25T23:31:43.640Z,92286.22
2023-01-25T23:34:15.855Z,92267.44
2023-01-25T23:36:47.886Z,92266.84
2023-01-25T23:39:20.613Z,92267.66
2023-01-25T23:41:52.694Z,92256.44
2023-01-25T23:44:24.686Z,92259.00
2023-01-25T23:46:56.735Z,92256.72
2023-01-25T23:49:28.760Z,92242.03
2023-01-25T23:52:01.063Z,92237.72
2023-01-25T23:54:33.709Z,92243.16
2023-01-25T23:57:05.812Z,92253.53
2023-01-25T23:59:38.002Z,92256.59
